Time;durP1;ratioP1;P1;durP2;ratioP2;P2;SDS_P1;SDS_P2;PMS_P1;PMS_P2;Temp;Humidity;BMP_temperature;BMP_pressure;BME280_temperature;BME280_humidity;BME280_pressure;Samples;Min_cycle;Max_cycle;Signal;HPM_P1;HPM_P2
2022/02/19 00:07:32;;;;;;;1999.90;999.90;;;;;;;9.55;49.24;98975.41;15643348;28;20041;-61
2022/02/19 00:15:05;;;;;;;;;;;;;;;9.38;50.30;98956.38;15626905;28;20124;-61
2022/02/19 00:22:38;;;;;;;1999.90;999.90;;;;;;;8.97;51.26;98986.56;15639857;28;19920;-61
2022/02/19 00:30:11;;;;;;;1999.90;999.90;;;;;;;9.01;48.71;98976.31;15624354;28;20382;-61
2022/02/19 00:37:45;;;;;;;1999.90;999.90;;;;;;;9.16;48.63;99000.47;15602307;28;20037;-60
2022/02/19 00:45:17;;;;;;;1425.32;549.78;;;;;;;8.84;48.47;98979.50;15610663;28;20773;-59
2022/02/19 00:52:55;;;;;;;1003.93;409.87;;;;;;;9.03;47.68;99003.75;15612580;28;20080;-60
2022/02/19 01:00:27;;;;;;;1999.90;999.90;;;;;;;8.59;48.65;98996.41;15601689;28;20136;-61
2022/02/19 01:08:32;;;;;;;1649.57;571.55;;;;;;;8.74;47.36;99019.78;15598117;28;20053;-61
2022/02/19 01:16:05;;;;;;;1999.90;999.90;;;;;;;8.95;45.97;99034.19;15627876;28;20045;-59
2022/02/19 01:23:38;;;;;;;1999.90;583.42;;;;;;;8.62;45.11;99031.03;15583434;28;20041;-59
2022/02/19 01:31:11;;;;;;;1987.22;991.22;;;;;;;8.98;43.74;99040.22;15611364;28;20044;-60
2022/02/19 01:38:45;;;;;;;1999.90;832.42;;;;;;;9.06;44.08;99028.06;15597015;28;20065;-60
2022/02/19 01:46:17;;;;;;;1999.90;999.90;;;;;;;8.78;43.80;99009.56;15590935;28;20049;-61
2022/02/19 01:53:52;;;;;;;1999.90;927.08;;;;;;;8.84;43.85;99046.25;15637776;28;20049;-62
2022/02/19 02:01:35;;;;;;;1999.90;686.58;;;;;;;8.81;44.16;99010.81;15627180;28;20480;-61
2022/02/19 02:09:31;;;;;;;1999.90;641.28;;;;;;;8.89;42.81;99018.97;15649789;28;20439;-61
2022/02/19 02:17:07;;;;;;;1999.90;955.85;;;;;;;8.71;43.24;99028.88;15626212;28;20052;-61
2022/02/19 02:24:41;;;;;;;1999.90;439.23;;;;;;;8.61;43.02;99024.66;15630383;28;20399;-61
2022/02/19 02:32:15;;;;;;;1999.90;860.05;;;;;;;8.65;41.68;99038.66;15618547;28;20394;-61
2022/02/19 02:39:48;;;;;;;1999.90;998.22;;;;;;;8.72;42.36;99016.56;15633326;28;20056;-60
2022/02/19 02:47:21;;;;;;;1999.90;708.17;;;;;;;8.69;42.24;99034.00;15653836;28;20068;-61
2022/02/19 02:54:54;;;;;;;1999.90;902.17;;;;;;;8.67;41.35;98997.41;15641864;28;20064;-61
2022/02/19 03:02:29;;;;;;;1999.90;999.90;;;;;;;8.80;40.37;99060.06;15646542;28;20358;-60
2022/02/19 03:10:04;;;;;;;1999.90;861.17;;;;;;;8.69;40.53;99072.91;15631248;28;20046;-59
2022/02/19 03:17:40;;;;;;;1999.90;999.90;;;;;;;8.53;40.63;99066.53;15681246;22;20060;-61
2022/02/19 03:25:15;;;;;;;1999.90;999.90;;;;;;;8.52;41.27;99087.97;15667856;28;20048;-61
2022/02/19 03:32:48;;;;;;;1999.90;770.55;;;;;;;8.30;41.85;99105.25;15684142;28;20029;-60
2022/02/19 03:40:25;;;;;;;1999.90;999.90;;;;;;;8.45;41.63;99087.81;15692201;28;20056;-60
2022/02/19 03:47:58;;;;;;;1999.90;878.17;;;;;;;8.41;42.00;99098.00;15658112;28;20037;-60
2022/02/19 03:55:32;;;;;;;1920.90;870.80;;;;;;;8.45;42.66;99164.84;15638714;28;20057;-60
2022/02/19 04:03:06;;;;;;;1999.90;999.90;;;;;;;8.37;44.23;99136.84;15638595;28;20045;-60
2022/02/19 04:10:41;;;;;;;1999.90;999.90;;;;;;;8.18;46.99;99172.81;15653434;28;20433;-59
2022/02/19 04:18:13;;;;;;;;;;;;;;;8.26;48.14;99171.84;15693306;28;20044;-60
2022/02/19 04:25:47;;;;;;;1999.90;999.90;;;;;;;7.91;49.20;99215.25;15677155;28;19920;-59
2022/02/19 04:33:28;;;;;;;1999.90;999.90;;;;;;;7.90;49.23;99236.66;15682729;28;20515;-60
2022/02/19 04:41:03;;;;;;;1999.90;999.90;;;;;;;7.68;50.50;99260.19;15673593;28;20043;-60
2022/02/19 04:48:35;;;;;;;1999.90;999.90;;;;;;;7.64;50.52;99267.63;15618468;28;20037;-61
2022/02/19 04:56:10;;;;;;;1999.90;999.90;;;;;;;7.65;50.52;99290.63;15705075;28;20570;-61
2022/02/19 05:03:43;;;;;;;1999.90;999.90;;;;;;;7.62;50.85;99321.88;15651834;28;20028;-59
2022/02/19 05:11:26;;;;;;;1999.90;999.90;;;;;;;7.58;51.22;99334.81;15651664;28;20051;-60
2022/02/19 05:18:59;;;;;;;1999.90;999.90;;;;;;;7.65;50.18;99346.16;15897622;22;20040;-60
2022/02/19 05:26:34;;;;;;;;;;;;;;;7.65;50.60;99373.91;15684811;28;20199;-60
2022/02/19 05:34:08;;;;;;;1999.90;999.90;;;;;;;7.76;50.63;99416.72;15630951;28;19952;-58
2022/02/19 05:41:41;;;;;;;1182.68;514.50;;;;;;;7.67;51.17;99477.91;15626845;28;20041;-60
2022/02/19 05:49:19;;;;;;;1999.90;999.90;;;;;;;7.31;52.47;99453.66;15605053;28;20033;-61
2022/02/19 05:57:08;;;;;;;1999.90;999.90;;;;;;;7.46;53.02;99491.03;15615818;28;20044;-58
2022/02/19 06:04:40;;;;;;;1999.90;999.90;;;;;;;7.34;53.74;99533.44;15638308;28;20095;-60
2022/02/19 06:12:16;;;;;;;1999.90;999.90;;;;;;;7.27;54.00;99544.25;15628659;28;20433;-60
2022/02/19 06:20:02;;;;;;;1999.90;999.90;;;;;;;7.41;53.00;99544.00;15620187;28;20394;-59
2022/02/19 06:27:39;;;;;;;1999.90;999.90;;;;;;;7.57;53.30;99599.69;15636287;28;20095;-60
2022/02/19 06:35:20;;;;;;;1999.90;999.90;;;;;;;7.58;53.76;99629.06;15607152;28;20053;-61
2022/02/19 06:42:53;;;;;;;1007.90;41.83;;;;;;;7.30;55.30;99667.66;15612223;28;20056;-61
2022/02/19 06:50:28;;;;;;;1730.13;762.45;;;;;;;6.91;56.58;99664.94;15612531;28;20045;-61
2022/02/19 06:58:06;;;;;;;1999.90;999.90;;;;;;;7.14;57.32;99698.75;15620161;28;20488;-60
2022/02/19 07:05:45;;;;;;;1999.90;999.90;;;;;;;6.99;60.05;99740.09;15624917;28;20068;-61
2022/02/19 07:13:23;;;;;;;1999.90;999.90;;;;;;;6.98;60.12;99755.91;15613556;28;20548;-59
2022/02/19 07:20:55;;;;;;;1999.90;999.90;;;;;;;6.87;59.64;99774.06;15584912;28;20049;-58
2022/02/19 07:28:30;;;;;;;1999.90;999.90;;;;;;;7.03;59.72;99788.22;15619672;28;20049;-61
2022/02/19 07:36:02;;;;;;;1999.90;999.90;;;;;;;7.02;59.07;99806.81;15587153;28;20099;-62
2022/02/19 07:43:38;;;;;;;1999.90;999.90;;;;;;;7.24;58.79;99836.28;15583580;28;20146;-61
2022/02/19 07:59:30;;;;;;;1999.90;999.90;;;;;;;7.31;58.16;99889.31;15599433;28;20045;-62
2022/02/19 08:07:02;;;;;;;;;;;;;;;7.28;58.43;99931.56;15581845;28;20044;-62
2022/02/19 08:14:35;;;;;;;1999.90;999.90;;;;;;;7.36;57.76;99927.16;15609808;28;19928;-62
2022/02/19 08:22:07;;;;;;;1999.90;999.90;;;;;;;7.15;59.35;99950.06;15658971;28;20494;-61
2022/02/19 08:29:41;;;;;;;1999.90;999.90;;;;;;;7.17;59.48;99980.25;15660736;28;20042;-62
2022/02/19 08:37:13;;;;;;;1999.90;785.55;;;;;;;6.77;60.13;100019.22;15600628;28;20041;-62
2022/02/19 08:44:47;;;;;;;1999.90;999.90;;;;;;;7.04;61.08;100045.84;15615243;28;20057;-61
2022/02/19 08:52:19;;;;;;;1999.90;999.90;;;;;;;6.99;59.91;100053.53;15596107;28;20051;-60
2022/02/19 08:59:52;;;;;;;1999.90;999.90;;;;;;;6.89;60.32;100069.34;15656498;28;20064;-61
2022/02/19 09:07:26;;;;;;;1999.90;999.90;;;;;;;7.02;59.62;100103.63;15661033;28;20742;-60
2022/02/19 09:14:59;;;;;;;;;;;;;;;7.46;58.90;100127.47;15617631;28;20064;-60
2022/02/19 09:22:31;;;;;;;1999.90;999.90;;;;;;;7.06;61.61;100148.97;15617263;28;19920;-61
2022/02/19 09:30:07;;;;;;;1999.90;999.90;;;;;;;7.20;60.61;100154.41;15610522;28;20076;-59
2022/02/19 09:37:39;;;;;;;1999.90;999.90;;;;;;;7.42;58.62;100159.81;15651799;28;20038;-62
2022/02/19 09:45:13;;;;;;;1999.90;999.90;;;;;;;7.41;57.01;100180.41;15578711;28;20253;-62
2022/02/19 09:52:45;;;;;;;;;;;;;;;8.02;55.46;100197.88;15582795;28;20107;-62
2022/02/19 10:00:29;;;;;;;1999.90;999.90;;;;;;;7.93;55.31;100226.81;15647310;23;19924;-61
2022/02/19 10:08:03;;;;;;;1143.30;511.95;;;;;;;7.36;56.41;100249.94;15679622;22;20052;-58
2022/02/19 10:15:46;;;;;;;1999.90;999.90;;;;;;;7.39;55.91;100273.44;15646345;28;20052;-58
2022/02/19 10:23:18;;;;;;;1999.90;999.90;;;;;;;7.30;55.98;100295.66;15610616;28;20460;-59
2022/02/19 10:30:55;;;;;;;1999.90;999.90;;;;;;;7.64;57.26;100303.25;15591168;28;20042;-54
2022/02/19 10:38:27;;;;;;;1999.90;999.90;;;;;;;7.32;55.79;100326.66;15571059;28;20088;-60
2022/02/19 10:46:02;;;;;;;1999.90;999.90;;;;;;;7.65;55.64;100332.66;15590505;28;20049;-59
2022/02/19 10:53:36;;;;;;;1999.90;999.90;;;;;;;8.44;53.20;100345.53;15589681;28;20045;-60
2022/02/19 11:01:38;;;;;;;1999.90;999.90;;;;;;;8.44;53.63;100344.69;15581346;28;20048;-59
2022/02/19 11:09:12;;;;;;;1999.90;999.90;;;;;;;8.44;53.10;100364.16;15604255;28;20065;-57
2022/02/19 11:16:45;;;;;;;;;;;;;;;8.30;53.23;100375.41;15581415;28;20057;-58
2022/02/19 11:24:18;;;;;;;1999.90;999.90;;;;;;;8.29;52.68;100384.88;15570962;28;20201;-58
2022/02/19 11:31:53;;;;;;;1999.90;999.90;;;;;;;8.85;51.24;100392.25;15566848;28;20046;-58
2022/02/19 11:39:25;;;;;;;1999.90;999.90;;;;;;;9.32;49.34;100375.63;15570548;28;20065;-59
2022/02/19 11:46:59;;;;;;;1999.90;999.90;;;;;;;9.04;49.40;100421.72;15588141;28;20053;-58
2022/02/19 11:54:31;;;;;;;1999.90;999.90;;;;;;;9.50;48.18;100424.56;15590651;28;20073;-58
2022/02/19 12:02:14;;;;;;;1490.18;627.38;;;;;;;8.99;48.22;100430.25;15587574;28;20115;-58
2022/02/19 12:10:05;;;;;;;1704.57;778.28;;;;;;;8.88;47.69;100435.31;15604141;28;20521;-59
2022/02/19 12:17:45;;;;;;;1999.90;999.90;;;;;;;8.60;48.64;100446.78;15587023;28;20486;-58
2022/02/19 12:25:17;;;;;;;1999.90;999.90;;;;;;;9.00;48.22;100466.09;15585662;28;20041;-58
2022/02/19 12:32:54;;;;;;;1999.90;999.90;;;;;;;8.82;47.96;100468.06;15604065;28;20051;-58
2022/02/19 12:40:27;;;;;;;1999.90;999.90;;;;;;;9.09;47.40;100480.00;15604695;28;20482;-61
2022/02/19 12:48:01;;;;;;;1999.90;999.90;;;;;;;9.25;47.68;100481.94;15585763;28;20052;-58
2022/02/19 12:55:33;;;;;;;1999.90;999.90;;;;;;;9.19;47.48;100499.97;15585687;28;20049;-62
2022/02/19 13:03:07;;;;;;;1999.90;999.90;;;;;;;8.84;47.13;100515.03;15570429;28;20264;-60
2022/02/19 13:10:42;;;;;;;1999.90;906.35;;;;;;;11.74;41.88;100505.00;15585755;28;20343;-60
2022/02/19 13:18:18;;;;;;;1999.90;874.05;;;;;;;10.29;44.64;100515.06;15602802;28;20107;-60
2022/02/19 13:25:50;;;;;;;972.60;649.60;;;;;;;10.38;43.83;100527.00;15586007;28;20122;-60
2022/02/19 13:33:23;;;;;;;1999.90;999.90;;;;;;;10.50;46.68;100550.56;15569272;28;20254;-58
2022/02/19 13:40:58;;;;;;;1999.90;940.55;;;;;;;13.33;39.79;100541.34;15591146;28;20058;-59
2022/02/19 13:48:32;;;;;;;1406.22;750.40;;;;;;;11.62;42.30;100541.31;15613686;28;20045;-60
2022/02/19 13:56:06;;;;;;;;;;;;;;;12.92;39.74;100556.47;15612248;28;20141;-60
2022/02/19 14:03:43;;;;;;;;;;;;;;;10.22;44.55;100566.97;15604802;28;19921;-60
2022/02/19 14:11:23;;;;;;;1999.90;999.90;;;;;;;10.07;45.82;100596.97;15627495;28;19921;-59
2022/02/19 14:19:03;;;;;;;1999.90;573.40;;;;;;;9.39;46.14;100601.50;15594780;28;20056;-59
2022/02/19 14:26:36;;;;;;;1999.90;997.08;;;;;;;9.63;45.38;100595.44;15612268;28;20049;-58
2022/02/19 14:34:14;;;;;;;1776.47;713.53;;;;;;;9.10;46.38;100620.81;15562675;28;20145;-58
2022/02/19 14:41:46;;;;;;;1999.90;999.90;;;;;;;9.18;46.47;100626.41;15551854;28;20447;-60
2022/02/19 14:49:20;;;;;;;1999.90;624.75;;;;;;;8.89;46.71;100607.53;15609901;28;20076;-58
2022/02/19 14:56:53;;;;;;;1999.90;982.80;;;;;;;9.29;45.69;100634.44;15589388;28;20496;-59
2022/02/19 15:04:27;;;;;;;1813.30;819.80;;;;;;;9.13;45.98;100640.47;15600986;28;20128;-60
2022/02/19 15:11:59;;;;;;;;;;;;;;;9.55;45.50;100643.59;15585056;28;20049;-60
2022/02/19 15:19:36;;;;;;;1820.18;653.33;;;;;;;9.17;45.96;100652.59;15615007;28;20194;-59
2022/02/19 15:27:08;;;;;;;1999.90;999.90;;;;;;;8.76;46.82;100654.97;15581223;28;20422;-58
2022/02/19 15:34:43;;;;;;;1999.90;699.58;;;;;;;8.59;46.51;100656.53;15604852;28;20552;-60
2022/02/19 15:42:15;;;;;;;;;;;;;;;9.06;45.49;100670.72;15587023;28;20090;-58
2022/02/19 15:49:49;;;;;;;1999.90;919.00;;;;;;;8.77;45.96;100662.97;15588980;28;19924;-63
2022/02/19 15:57:21;;;;;;;1917.03;989.45;;;;;;;8.80;45.93;100658.72;15572793;28;20509;-61
2022/02/19 16:04:55;;;;;;;1999.90;999.90;;;;;;;8.45;46.37;100647.47;15603983;28;20042;-60
2022/02/19 16:12:27;;;;;;;1999.90;955.70;;;;;;;8.51;46.29;100660.06;15603731;28;20049;-62
2022/02/19 16:20:00;;;;;;;1999.90;999.90;;;;;;;8.26;47.08;100644.06;15569537;28;20067;-61
2022/02/19 16:27:33;;;;;;;1999.90;968.33;;;;;;;8.16;47.28;100669.38;15586231;28;20363;-59
2022/02/19 16:35:07;;;;;;;1999.90;999.90;;;;;;;8.16;46.57;100691.59;15605087;28;20207;-53
2022/02/19 16:42:40;;;;;;;1999.90;999.90;;;;;;;8.09;46.78;100711.50;15594283;28;20048;-59
2022/02/19 16:50:15;;;;;;;1999.90;999.90;;;;;;;7.86;47.10;100715.41;15608336;28;20124;-56
2022/02/19 16:57:47;;;;;;;1999.90;971.97;;;;;;;7.91;46.31;100718.88;15626504;28;20042;-56
2022/02/19 17:05:21;;;;;;;1999.90;999.90;;;;;;;7.82;46.39;100729.94;15597750;28;20060;-59
2022/02/19 17:12:54;;;;;;;1999.90;925.33;;;;;;;7.94;46.35;100739.66;15606623;28;20470;-59
2022/02/19 17:20:29;;;;;;;1999.90;995.70;;;;;;;7.85;46.49;100741.56;15605055;28;20048;-58
2022/02/19 17:28:02;;;;;;;1999.90;993.53;;;;;;;7.76;46.50;100742.28;15585461;28;20300;-58
2022/02/19 17:35:36;;;;;;;1938.40;978.47;;;;;;;7.99;46.55;100734.78;15615795;28;20049;-57
2022/02/19 17:43:10;;;;;;;1999.90;999.90;;;;;;;7.85;46.78;100731.25;15621721;28;20303;-56
2022/02/19 17:50:44;;;;;;;1999.90;987.95;;;;;;;7.65;46.91;100715.88;15603564;28;20079;-56
2022/02/19 17:58:16;;;;;;;;;;;;;;;7.87;47.04;100722.59;15621725;28;20550;-57
2022/02/19 18:05:52;;;;;;;1999.90;999.90;;;;;;;7.49;47.82;100722.91;15620616;28;20032;-57
2022/02/19 18:13:25;;;;;;;1999.90;999.90;;;;;;;7.34;48.42;100726.03;15589763;28;20057;-59
2022/02/19 18:20:59;;;;;;;1999.90;999.90;;;;;;;7.35;48.53;100731.28;15607187;28;20099;-56
2022/02/19 18:28:31;;;;;;;1999.90;999.90;;;;;;;7.05;49.54;100724.44;15588512;28;20050;-59
2022/02/19 18:36:06;;;;;;;1999.90;999.90;;;;;;;6.82;50.43;100728.25;15596425;28;20049;-62
2022/02/19 18:43:38;;;;;;;1999.90;999.90;;;;;;;6.49;51.58;100725.53;15575991;28;20410;-56
2022/02/19 18:51:12;;;;;;;1999.90;999.90;;;;;;;6.42;51.50;100713.19;15579529;28;20404;-60
2022/02/19 18:58:44;;;;;;;1999.90;999.90;;;;;;;6.41;51.46;100717.09;15600046;28;20052;-62
2022/02/19 19:06:18;;;;;;;1999.90;999.90;;;;;;;6.10;52.26;100701.00;15580076;28;20049;-62
2022/02/19 19:13:51;;;;;;;1999.90;999.90;;;;;;;5.92;52.56;100699.09;15606196;28;20115;-59
2022/02/19 19:21:25;;;;;;;1999.90;999.90;;;;;;;5.98;52.75;100692.34;15624999;28;20136;-60
2022/02/19 19:28:59;;;;;;;1999.90;999.90;;;;;;;6.05;51.96;100685.31;15629585;28;20410;-59
2022/02/19 19:36:36;;;;;;;1999.90;999.90;;;;;;;5.94;51.95;100674.69;15631614;28;20110;-63
2022/02/19 19:44:09;;;;;;;1999.90;999.90;;;;;;;5.89;52.12;100671.97;15620902;28;20164;-60
2022/02/19 19:51:43;;;;;;;1999.90;999.90;;;;;;;5.73;52.78;100658.41;15587429;28;20051;-62
2022/02/19 19:59:16;;;;;;;;;;;;;;;5.84;52.34;100652.69;15577610;28;20167;-60
2022/02/19 20:06:50;;;;;;;1999.90;999.90;;;;;;;5.74;53.23;100640.66;15574042;28;19983;-60
2022/02/19 20:14:25;;;;;;;1999.90;999.90;;;;;;;5.63;52.38;100632.84;15558276;28;20502;-62
2022/02/19 20:22:00;;;;;;;1999.90;999.90;;;;;;;5.43;53.17;100623.75;15581232;28;20076;-60
2022/02/19 20:29:33;;;;;;;1999.90;999.90;;;;;;;5.44;53.43;100610.72;15557718;28;20119;-60
2022/02/19 20:37:07;;;;;;;1999.90;999.90;;;;;;;5.48;53.17;100601.50;15586761;28;20057;-58
2022/02/19 20:44:40;;;;;;;;;;;;;;;5.58;53.13;100594.97;15591520;28;20348;-60
2022/02/19 20:52:15;;;;;;;1999.90;999.90;;;;;;;5.65;52.91;100591.81;15601237;28;19921;-58
2022/02/19 20:59:48;;;;;;;1999.90;999.90;;;;;;;5.67;53.45;100575.72;15576449;28;20683;-56
2022/02/19 21:07:25;;;;;;;1999.90;999.90;;;;;;;5.57;54.06;100562.88;15576889;28;20045;-60
2022/02/19 21:15:01;;;;;;;1999.90;999.90;;;;;;;5.84;54.48;100556.59;15593299;28;20137;-61
2022/02/19 21:22:38;;;;;;;1999.90;999.90;;;;;;;6.00;54.44;100557.97;15590528;28;20049;-63
2022/02/19 21:30:11;;;;;;;1999.90;999.90;;;;;;;5.95;54.57;100549.78;15576864;28;20152;-66
2022/02/19 21:37:47;;;;;;;1999.90;999.90;;;;;;;6.23;54.82;100542.28;15593682;28;20588;-57
2022/02/19 21:45:19;;;;;;;1999.90;999.90;;;;;;;6.46;53.88;100532.13;15591471;28;20048;-62
2022/02/19 21:52:53;;;;;;;1999.90;999.90;;;;;;;6.76;53.80;100530.59;15577651;28;20052;-61
2022/02/19 22:00:25;;;;;;;1999.90;999.90;;;;;;;6.75;53.98;100528.97;15589051;28;20525;-59
2022/02/19 22:08:00;;;;;;;1999.90;999.90;;;;;;;7.03;53.01;100523.34;15592272;28;20295;-63
2022/02/19 22:15:33;;;;;;;1999.90;999.90;;;;;;;7.18;53.48;100507.13;15653075;23;20056;-61
2022/02/19 22:23:06;;;;;;;1999.90;999.90;;;;;;;7.57;52.88;100521.44;15605517;28;20150;-61
2022/02/19 22:30:39;;;;;;;1999.90;999.90;;;;;;;7.37;53.63;100522.78;15609732;28;20137;-62
2022/02/19 22:38:12;;;;;;;1999.90;999.90;;;;;;;7.35;56.23;100527.81;15617260;28;20533;-60
2022/02/19 22:45:45;;;;;;;1999.90;999.90;;;;;;;7.34;58.38;100529.78;15633920;28;20053;-60
2022/02/19 22:53:19;;;;;;;1999.90;999.90;;;;;;;6.73;63.18;100522.91;15617725;28;20103;-60
2022/02/19 23:01:31;;;;;;;1999.90;999.90;;;;;;;6.88;63.75;100505.94;15615774;28;20133;-59
2022/02/19 23:09:05;;;;;;;1999.90;999.90;;;;;;;6.61;65.29;100489.38;15636598;28;20047;-60
2022/02/19 23:16:37;;;;;;;;;;;;;;;6.44;66.89;100484.47;15678863;28;20076;-59
2022/02/19 23:24:12;;;;;;;1999.90;999.90;;;;;;;6.33;67.50;100469.19;15656496;28;19928;-58
2022/02/19 23:31:44;;;;;;;1999.90;999.90;;;;;;;6.39;66.96;100453.28;15595196;28;20481;-61
2022/02/19 23:39:20;;;;;;;1999.90;999.90;;;;;;;6.33;67.37;100425.69;15611044;28;20045;-60
2022/02/19 23:46:52;;;;;;;1999.90;999.90;;;;;;;6.27;67.64;100407.53;15613185;28;20053;-61
2022/02/19 23:54:25;;;;;;;1999.90;999.90;;;;;;;6.19;69.10;100393.59;15595092;28;20050;-61
